Time;durP1;ratioP1;P1;durP2;ratioP2;P2;SDS_P1;SDS_P2;PMS_P1;PMS_P2;Temp;Humidity;BMP_temperature;BMP_pressure;BME280_temperature;BME280_humidity;BME280_pressure;Samples;Min_cycle;Max_cycle;Signal;HPM_P1;HPM_P2
2022/09/25 00:00:18;;;;;;;22.93;14.10;;;14.10;96.70;;;;;;4999885;28;20197;-72
2022/09/25 00:02:44;;;;;;;28.93;15.13;;;14.00;96.60;;;;;;5007614;28;20192;-72
2022/09/25 00:05:09;;;;;;;28.03;16.27;;;14.00;96.60;;;;;;5005579;28;20231;-72
2022/09/25 00:07:35;;;;;;;24.77;14.50;;;13.90;96.70;;;;;;5001684;28;20256;-72
2022/09/25 00:10:00;;;;;;;23.10;13.07;;;14.00;96.60;;;;;;5006503;28;20198;-72
2022/09/25 00:12:26;;;;;;;24.97;15.50;;;14.00;96.50;;;;;;5003908;28;20190;-72
2022/09/25 00:14:52;;;;;;;23.30;14.33;;;14.00;96.20;;;;;;5003980;28;20205;-72
2022/09/25 00:17:17;;;;;;;23.30;14.20;;;13.90;96.20;;;;;;5000444;28;20214;-71
2022/09/25 00:19:49;;;;;;;23.67;14.70;;;13.80;96.20;;;;;;5004750;28;20442;-72
2022/09/25 00:22:18;;;;;;;26.70;15.50;;;13.70;96.40;;;;;;5003198;28;20629;-71
2022/09/25 00:24:45;;;;;;;22.10;14.40;;;13.60;96.50;;;;;;4987372;28;20445;-72
2022/09/25 00:27:11;;;;;;;26.40;15.07;;;13.60;96.60;;;;;;5000880;28;20457;-72
2022/09/25 00:29:38;;;;;;;23.50;13.83;;;13.60;96.70;;;;;;5008353;28;20498;-71
2022/09/25 00:32:06;;;;;;;24.10;12.60;;;13.60;96.70;;;;;;5006774;28;20440;-71
2022/09/25 00:34:32;;;;;;;27.70;16.70;;;13.60;96.80;;;;;;5008130;28;20476;-70
2022/09/25 00:36:57;;;;;;;23.23;14.10;;;13.70;96.60;;;;;;5005585;28;20511;-72
2022/09/25 00:39:23;;;;;;;26.17;13.93;;;13.70;96.60;;;;;;5008623;28;20692;-71
2022/09/25 00:41:49;;;;;;;23.67;13.80;;;13.70;96.50;;;;;;5005787;28;20550;-71
2022/09/25 00:44:55;;;;;;;22.03;12.70;;;13.60;96.40;;;;;;5007628;28;20186;-71
2022/09/25 00:47:30;;;;;;;27.87;14.60;;;13.60;96.50;;;;;;5008622;28;20215;-71
2022/09/25 00:49:58;;;;;;;26.60;13.70;;;13.50;96.60;;;;;;5012090;28;20858;-71
2022/09/25 00:52:25;;;;;;;26.70;14.70;;;13.50;96.80;;;;;;4988109;28;21109;-71
2022/09/25 00:55:02;;;;;;;25.53;15.70;;;13.60;97.00;;;;;;5003817;28;21064;-72
2022/09/25 00:57:32;;;;;;;22.90;13.70;;;13.50;97.10;;;;;;5001383;28;21020;-72
2022/09/25 01:00:04;;;;;;;25.53;15.03;;;13.50;97.20;;;;;;4994766;28;20429;-72
2022/09/25 01:02:33;;;;;;;28.20;15.67;;;13.60;97.30;;;;;;5003059;28;20506;-70
2022/09/25 01:05:05;;;;;;;25.00;15.70;;;13.60;97.20;;;;;;5004876;28;20447;-72
2022/09/25 01:07:37;;;;;;;32.00;19.37;;;13.50;97.20;;;;;;5006482;28;20465;-70
2022/09/25 01:10:06;;;;;;;30.33;17.73;;;13.50;97.20;;;;;;5009421;28;20891;-71
2022/09/25 01:12:37;;;;;;;21.30;12.97;;;13.50;97.20;;;;;;5004169;28;20503;-70
2022/09/25 01:15:06;;;;;;;26.27;15.70;;;13.60;97.20;;;;;;5008443;28;20895;-71
2022/09/25 01:17:41;;;;;;;22.83;13.73;;;13.60;97.00;;;;;;4999819;28;20453;-71
2022/09/25 01:20:47;;;;;;;25.77;14.37;;;13.60;96.80;;;;;;4993654;28;20820;-71
2022/09/25 01:23:51;;;;;;;22.10;12.70;;;13.60;96.70;;;;;;4960439;28;20436;-70
2022/09/25 01:26:35;;;;;;;21.50;13.07;;;13.70;96.80;;;;;;4926001;29;21032;-70
2022/09/25 01:29:26;;;;;;;28.00;14.93;;;13.70;96.70;;;;;;4920469;29;20436;-72
2022/09/25 01:32:17;;;;;;;27.70;15.10;;;13.70;96.50;;;;;;4918278;29;20433;-70
2022/09/25 01:34:47;;;;;;;24.30;14.30;;;13.70;96.20;;;;;;4926627;29;20531;-71
2022/09/25 01:37:31;;;;;;;29.63;14.80;;;13.60;96.10;;;;;;4928305;29;20473;-71
2022/09/25 01:40:04;;;;;;;25.77;14.23;;;13.60;96.00;;;;;;4930988;29;20420;-69
2022/09/25 01:42:39;;;;;;;24.47;13.70;;;13.50;95.90;;;;;;4927519;29;20420;-72
2022/09/25 01:45:09;;;;;;;23.80;13.70;;;13.40;96.00;;;;;;4920638;29;20424;-71
2022/09/25 01:47:37;;;;;;;23.70;13.40;;;13.30;96.20;;;;;;4925390;29;20464;-71
2022/09/25 01:50:13;;;;;;;25.17;15.60;;;13.30;96.50;;;;;;4927569;29;20847;-72
2022/09/25 01:52:46;;;;;;;25.97;15.30;;;13.30;96.60;;;;;;4927240;29;20447;-71
2022/09/25 01:55:18;;;;;;;29.10;14.90;;;13.10;96.70;;;;;;4925791;29;21000;-71
2022/09/25 01:58:07;;;;;;;35.90;18.00;;;13.10;97.00;;;;;;4986690;28;21143;-71
2022/09/25 02:00:36;;;;;;;26.13;15.03;;;13.20;97.10;;;;;;5006075;28;20440;-72
2022/09/25 02:03:29;;;;;;;31.43;16.07;;;13.20;97.00;;;;;;5004176;28;20431;-71
2022/09/25 02:06:01;;;;;;;27.23;15.63;;;13.30;97.00;;;;;;4993576;28;20457;-71
2022/09/25 02:08:34;;;;;;;26.10;14.70;;;13.30;96.90;;;;;;4988330;28;20897;-71
2022/09/25 02:11:03;;;;;;;31.10;16.87;;;13.30;96.90;;;;;;5001545;28;20437;-72
2022/09/25 02:13:37;;;;;;;31.60;17.90;;;13.30;96.90;;;;;;5010812;28;20508;-73
2022/09/25 02:16:09;;;;;;;29.60;16.80;;;13.30;96.80;;;;;;5005288;28;20468;-71
2022/09/25 02:21:35;;;;;;;30.07;16.70;;;13.40;96.70;;;;;;5005017;28;20441;-72
2022/09/25 02:24:10;;;;;;;29.83;16.23;;;13.40;96.70;;;;;;5001367;28;20978;-72
2022/09/25 02:26:37;;;;;;;29.20;15.57;;;13.40;96.60;;;;;;4993351;28;21056;-71
2022/09/25 02:29:03;;;;;;;28.27;15.27;;;13.40;96.60;;;;;;5006265;28;20417;-72
2022/09/25 02:31:44;;;;;;;25.83;15.30;;;13.60;96.60;;;;;;5003833;28;20422;-73
2022/09/25 02:34:10;;;;;;;31.03;15.60;;;13.60;96.60;;;;;;5007150;28;20467;-71
2022/09/25 02:36:36;;;;;;;32.63;16.07;;;13.70;96.50;;;;;;5004589;28;20535;-72
2022/09/25 02:39:04;;;;;;;27.03;13.93;;;13.70;96.30;;;;;;4987105;28;20924;-72
2022/09/25 02:41:48;;;;;;;23.97;13.80;;;13.80;96.20;;;;;;5003329;28;20214;-72
2022/09/25 02:44:23;;;;;;;24.97;14.17;;;13.80;96.00;;;;;;5004397;28;20432;-72
2022/09/25 02:47:07;;;;;;;25.80;14.60;;;13.80;95.70;;;;;;5002118;28;21061;-72
2022/09/25 02:49:33;;;;;;;25.30;13.70;;;13.90;95.50;;;;;;5011919;28;20431;-71
2022/09/25 02:52:24;;;;;;;22.67;12.93;;;14.00;95.30;;;;;;5011911;28;20513;-71
2022/09/25 02:55:01;;;;;;;22.03;13.10;;;14.00;95.20;;;;;;4971070;28;20225;-71
2022/09/25 02:58:08;;;;;;;26.97;13.63;;;14.10;95.10;;;;;;5006109;28;20543;-72
2022/09/25 03:00:36;;;;;;;24.70;14.57;;;14.10;95.10;;;;;;4923073;29;20527;-71
2022/09/25 03:03:06;;;;;;;24.87;14.10;;;14.10;95.00;;;;;;4925921;29;20441;-70
2022/09/25 03:05:32;;;;;;;23.40;13.20;;;14.20;95.00;;;;;;4925160;29;20429;-71
2022/09/25 03:10:45;;;;;;;30.70;15.70;;;14.10;94.70;;;;;;4926724;29;20260;-71
2022/09/25 03:13:25;;;;;;;22.57;12.73;;;14.10;94.90;;;;;;4922466;29;20433;-72
2022/09/25 03:15:57;;;;;;;25.50;13.57;;;14.10;95.00;;;;;;4915158;29;20457;-72
2022/09/25 03:18:24;;;;;;;21.20;11.97;;;14.10;95.00;;;;;;4918861;29;20947;-71
2022/09/25 03:20:49;;;;;;;21.93;12.30;;;14.10;94.90;;;;;;4913687;29;20540;-71
2022/09/25 03:23:15;;;;;;;22.20;12.03;;;14.00;95.00;;;;;;4924761;29;20916;-72
2022/09/25 03:25:41;;;;;;;16.10;10.60;;;14.00;95.00;;;;;;4926103;29;20298;-72
2022/09/25 03:28:10;;;;;;;20.07;11.23;;;14.00;95.00;;;;;;4926897;29;20437;-72
2022/09/25 03:30:39;;;;;;;21.57;13.43;;;14.10;94.90;;;;;;4929726;29;20264;-72
2022/09/25 03:33:11;;;;;;;22.73;12.40;;;14.10;94.60;;;;;;4918847;29;20431;-71
2022/09/25 03:35:38;;;;;;;32.73;15.33;;;14.10;94.40;;;;;;4950093;28;20429;-71
2022/09/25 03:38:04;;;;;;;24.97;13.97;;;14.10;94.40;;;;;;5005932;28;20469;-73
2022/09/25 03:40:30;;;;;;;25.20;14.90;;;14.00;94.50;;;;;;4988594;28;20444;-72
2022/09/25 03:42:56;;;;;;;26.20;15.73;;;13.90;94.70;;;;;;5004967;28;20424;-72
2022/09/25 03:45:21;;;;;;;28.50;15.13;;;13.80;94.90;;;;;;5010334;28;20247;-73
2022/09/25 03:47:47;;;;;;;27.40;14.10;;;13.70;95.30;;;;;;5004264;28;20460;-73
2022/09/25 03:50:13;;;;;;;26.47;14.30;;;13.60;95.50;;;;;;5004857;28;20186;-73
2022/09/25 03:52:38;;;;;;;24.93;13.47;;;13.60;95.70;;;;;;5007910;28;20277;-73
2022/09/25 03:55:04;;;;;;;28.03;15.87;;;13.60;95.80;;;;;;5007024;28;20593;-71
2022/09/25 03:57:30;;;;;;;24.57;13.70;;;13.60;95.90;;;;;;5000485;28;20320;-71
2022/09/25 04:00:00;;;;;;;24.60;14.03;;;13.60;96.10;;;;;;5004754;28;20992;-72
2022/09/25 04:02:27;;;;;;;26.70;14.70;;;13.60;96.30;;;;;;5001567;28;20189;-71
2022/09/25 04:04:53;;;;;;;25.53;14.40;;;13.70;96.40;;;;;;4984775;28;20517;-72
2022/09/25 04:07:20;;;;;;;26.77;13.17;;;13.80;96.60;;;;;;5003581;28;20460;-71
2022/09/25 04:09:46;;;;;;;24.17;14.87;;;13.80;96.50;;;;;;5005924;28;20520;-71
2022/09/25 04:12:11;;;;;;;25.10;14.00;;;13.90;96.40;;;;;;5002070;28;20885;-72
2022/09/25 04:14:37;;;;;;;23.53;13.23;;;13.90;96.20;;;;;;5010200;28;20206;-73
2022/09/25 04:17:03;;;;;;;23.50;13.93;;;13.90;96.40;;;;;;5004099;28;20275;-72
2022/09/25 04:19:29;;;;;;;27.47;15.30;;;13.80;96.20;;;;;;5015255;28;20428;-72
2022/09/25 04:21:55;;;;;;;27.70;15.70;;;13.90;96.40;;;;;;5010094;28;20813;-71
2022/09/25 04:25:06;;;;;;;32.43;18.80;;;13.80;96.20;;;;;;5012742;28;20952;-72
2022/09/25 04:27:06;;;;;;;36.40;20.37;;;13.60;96.20;;;;;;4993677;28;20547;-71
2022/09/25 04:29:32;;;;;;;38.20;19.97;;;13.40;96.60;;;;;;4993660;28;20433;-72
2022/09/25 04:34:42;;;;;;;39.80;21.10;;;13.30;97.30;;;;;;5006562;28;20506;-72
2022/09/25 04:37:09;;;;;;;44.83;22.30;;;13.10;97.50;;;;;;4987236;28;20460;-72
2022/09/25 04:39:35;;;;;;;38.87;21.13;;;13.10;97.70;;;;;;5006423;28;20201;-71
2022/09/25 04:42:00;;;;;;;42.63;22.40;;;13.00;97.90;;;;;;4994200;28;20471;-71
2022/09/25 04:44:26;;;;;;;37.70;21.13;;;13.00;98.00;;;;;;5011571;28;20192;-72
2022/09/25 04:46:52;;;;;;;38.33;21.57;;;13.10;98.10;;;;;;4997554;28;20210;-71
2022/09/25 04:49:17;;;;;;;43.83;22.00;;;13.00;98.10;;;;;;5003628;28;20916;-73
2022/09/25 04:51:43;;;;;;;42.17;21.67;;;13.00;98.20;;;;;;5012208;28;20550;-71
2022/09/25 04:54:08;;;;;;;43.77;21.60;;;13.00;98.20;;;;;;5006846;28;20219;-71
2022/09/25 04:56:34;;;;;;;40.73;20.67;;;12.80;98.30;;;;;;5003441;28;20304;-72
2022/09/25 04:58:59;;;;;;;44.33;23.13;;;12.70;98.40;;;;;;4989058;28;20228;-72
2022/09/25 05:01:25;;;;;;;46.37;23.80;;;12.70;98.60;;;;;;5007666;28;20201;-74
2022/09/25 05:03:52;;;;;;;45.53;23.60;;;12.60;98.70;;;;;;5012446;28;20186;-72
2022/09/25 05:06:18;;;;;;;39.60;19.23;;;12.60;99.00;;;;;;5006073;28;20214;-70
2022/09/25 05:08:45;;;;;;;36.10;18.80;;;12.70;99.00;;;;;;5004122;28;20518;-71
2022/09/25 05:11:12;;;;;;;42.07;19.97;;;12.80;99.10;;;;;;5007927;28;20459;-71
2022/09/25 05:13:38;;;;;;;40.37;18.93;;;13.00;99.10;;;;;;5008730;28;20464;-72
2022/09/25 05:16:03;;;;;;;35.00;17.90;;;13.10;98.90;;;;;;5002487;28;20524;-73
2022/09/25 05:18:29;;;;;;;35.63;19.13;;;13.20;98.80;;;;;;5008048;28;20182;-71
2022/09/25 05:20:55;;;;;;;34.33;17.10;;;13.30;98.60;;;;;;5000570;28;20218;-71
2022/09/25 05:23:22;;;;;;;38.63;18.33;;;13.30;98.40;;;;;;5010931;28;20604;-71
2022/09/25 05:25:53;;;;;;;38.30;21.77;;;13.30;98.20;;;;;;4998550;28;20432;-72
2022/09/25 05:28:19;;;;;;;39.60;20.80;;;13.40;98.00;;;;;;4985075;28;20792;-71
2022/09/25 05:30:45;;;;;;;37.23;19.20;;;13.20;97.60;;;;;;4990191;28;20421;-72
2022/09/25 05:33:10;;;;;;;34.27;19.90;;;13.20;97.70;;;;;;5007321;28;20674;-72
2022/09/25 05:35:36;;;;;;;31.40;18.20;;;13.30;97.70;;;;;;5007309;28;20212;-71
2022/09/25 05:38:01;;;;;;;27.73;17.60;;;13.40;97.60;;;;;;5006629;28;20227;-72
2022/09/25 05:40:27;;;;;;;32.13;17.23;;;13.50;97.50;;;;;;5007113;28;20187;-71
2022/09/25 05:42:54;;;;;;;39.13;18.73;;;13.50;97.40;;;;;;5007920;28;20189;-71
2022/09/25 05:45:22;;;;;;;37.60;19.40;;;13.60;97.20;;;;;;5007640;28;20317;-71
2022/09/25 05:47:47;;;;;;;44.97;21.37;;;13.60;97.00;;;;;;5008060;28;20468;-70
2022/09/25 05:50:15;;;;;;;29.10;16.17;;;13.60;96.90;;;;;;5001244;28;20919;-71
2022/09/25 05:52:41;;;;;;;26.17;16.00;;;13.70;97.00;;;;;;5008906;28;20198;-70
2022/09/25 05:55:09;;;;;;;25.07;14.27;;;13.70;96.80;;;;;;5005331;28;20559;-72
2022/09/25 05:57:35;;;;;;;27.00;15.53;;;13.80;96.60;;;;;;5007634;28;20248;-72
2022/09/25 06:00:03;;;;;;;25.90;15.17;;;13.80;96.20;;;;;;5005427;28;20499;-72
2022/09/25 06:02:29;;;;;;;29.07;15.80;;;13.80;95.80;;;;;;5001362;28;20444;-72
2022/09/25 06:04:54;;;;;;;26.13;14.97;;;13.90;95.70;;;;;;5006475;28;20428;-71
2022/09/25 06:07:20;;;;;;;24.97;15.40;;;13.90;95.70;;;;;;4988492;28;20237;-70
2022/09/25 06:09:46;;;;;;;22.30;13.37;;;14.00;95.70;;;;;;5006493;28;20178;-71
2022/09/25 06:12:12;;;;;;;26.10;14.90;;;14.00;95.60;;;;;;5001796;28;20194;-72
2022/09/25 06:14:37;;;;;;;27.63;15.80;;;14.00;95.50;;;;;;5006054;28;20468;-71
2022/09/25 06:17:03;;;;;;;26.90;15.10;;;14.10;95.40;;;;;;5010114;28;20206;-71
2022/09/25 06:19:29;;;;;;;26.33;15.33;;;14.10;95.20;;;;;;5002828;28;20198;-71
2022/09/25 06:21:56;;;;;;;24.90;14.73;;;14.10;94.70;;;;;;5005392;28;20202;-72
2022/09/25 06:24:22;;;;;;;25.23;13.37;;;14.20;94.40;;;;;;5006967;28;20181;-71
2022/09/25 06:26:48;;;;;;;26.47;15.23;;;14.20;94.10;;;;;;4988015;28;20472;-71
2022/09/25 06:29:13;;;;;;;28.63;15.57;;;14.20;93.90;;;;;;5009361;28;20439;-71
2022/09/25 06:31:39;;;;;;;29.90;16.07;;;14.10;93.80;;;;;;5009663;28;20269;-72
2022/09/25 06:34:05;;;;;;;26.20;14.70;;;13.90;94.00;;;;;;5003362;28;20209;-71
2022/09/25 06:36:31;;;;;;;24.00;14.10;;;13.90;94.40;;;;;;5002448;28;20242;-72
2022/09/25 06:38:57;;;;;;;21.33;12.20;;;14.00;94.60;;;;;;5006363;28;20186;-72
2022/09/25 06:41:23;;;;;;;22.53;13.70;;;14.00;94.00;;;;;;5006585;28;20421;-72
2022/09/25 06:43:51;;;;;;;21.23;11.80;;;14.00;93.80;;;;;;5012454;28;20916;-72
2022/09/25 06:46:19;;;;;;;26.30;13.33;;;14.00;93.50;;;;;;5004149;28;20570;-72
2022/09/25 06:48:55;;;;;;;19.63;11.60;;;13.90;93.60;;;;;;5009057;28;20428;-71
2022/09/25 06:51:24;;;;;;;23.23;12.23;;;13.90;93.80;;;;;;5009419;28;20446;-71
2022/09/25 06:53:54;;;;;;;23.03;12.90;;;13.90;93.90;;;;;;4986027;28;20983;-71
2022/09/25 06:56:20;;;;;;;23.43;12.40;;;13.90;93.90;;;;;;5004307;28;20516;-71
2022/09/25 06:58:46;;;;;;;23.53;12.33;;;13.90;93.90;;;;;;5009524;28;20417;-71
2022/09/25 07:01:12;;;;;;;24.77;12.53;;;13.90;93.60;;;;;;5001342;28;20512;-72
2022/09/25 07:03:46;;;;;;;24.80;12.30;;;13.90;93.50;;;;;;4999001;28;20524;-72
2022/09/25 07:06:11;;;;;;;23.90;11.83;;;13.90;93.60;;;;;;5003980;28;20469;-71
2022/09/25 07:08:37;;;;;;;23.47;13.20;;;13.90;93.80;;;;;;4997636;28;20513;-71
2022/09/25 07:11:03;;;;;;;24.00;13.40;;;13.90;93.70;;;;;;4998955;28;20177;-72
2022/09/25 07:13:32;;;;;;;22.10;12.43;;;14.00;93.70;;;;;;4993716;28;20714;-72
2022/09/25 07:16:03;;;;;;;21.40;12.27;;;14.00;93.70;;;;;;5007245;28;20491;-70
2022/09/25 07:18:29;;;;;;;30.10;13.87;;;14.10;93.50;;;;;;4987676;28;20434;-70
2022/09/25 07:21:06;;;;;;;23.60;13.00;;;14.20;93.20;;;;;;4990480;28;20499;-71
2022/09/25 07:23:32;;;;;;;24.23;11.90;;;14.20;92.50;;;;;;5003638;28;20425;-71
2022/09/25 07:26:05;;;;;;;26.47;13.90;;;14.20;92.60;;;;;;5004220;28;20961;-71
2022/09/25 07:28:31;;;;;;;22.37;13.87;;;14.20;92.60;;;;;;4999005;28;20966;-71
2022/09/25 07:30:56;;;;;;;26.93;13.93;;;14.10;92.80;;;;;;5008170;28;20429;-72
2022/09/25 07:33:23;;;;;;;23.83;14.00;;;14.10;93.10;;;;;;5007482;28;20631;-73
2022/09/25 07:35:52;;;;;;;23.37;12.87;;;14.20;93.40;;;;;;5008256;28;20666;-74
2022/09/25 07:38:18;;;;;;;15.10;9.47;;;14.40;93.20;;;;;;5003462;28;20425;-73
2022/09/25 07:40:44;;;;;;;21.60;11.17;;;14.50;92.60;;;;;;5004360;28;20928;-73
2022/09/25 07:43:10;;;;;;;19.20;9.80;;;14.50;91.70;;;;;;5007803;28;20269;-73
2022/09/25 07:45:35;;;;;;;17.87;10.67;;;14.50;91.50;;;;;;5010797;28;20905;-72
2022/09/25 07:48:02;;;;;;;18.20;10.13;;;14.40;91.90;;;;;;5003157;28;20547;-72
2022/09/25 07:50:30;;;;;;;17.60;9.87;;;14.40;92.20;;;;;;5004920;28;20244;-72
2022/09/25 07:52:56;;;;;;;15.77;9.63;;;14.40;92.10;;;;;;5000320;28;20440;-73
2022/09/25 07:55:22;;;;;;;17.47;9.70;;;14.40;92.00;;;;;;5008723;28;21028;-74
2022/09/25 07:57:49;;;;;;;19.23;10.30;;;14.50;92.30;;;;;;5004324;28;20471;-72
2022/09/25 08:00:15;;;;;;;16.27;8.90;;;14.60;92.00;;;;;;5006534;28;20432;-72
2022/09/25 08:02:41;;;;;;;18.90;10.23;;;14.60;92.00;;;;;;5007658;28;20487;-74
2022/09/25 08:05:07;;;;;;;18.07;9.50;;;14.80;92.00;;;;;;5011787;28;20425;-72
2022/09/25 08:07:33;;;;;;;15.73;9.33;;;14.70;91.50;;;;;;4992406;28;20218;-72
2022/09/25 08:09:58;;;;;;;16.20;10.23;;;14.70;91.20;;;;;;5006152;28;20440;-72
2022/09/25 08:12:24;;;;;;;18.70;9.70;;;14.70;91.30;;;;;;5008765;28;20189;-73
2022/09/25 08:14:51;;;;;;;18.43;10.53;;;14.70;91.00;;;;;;5006261;28;20214;-73
2022/09/25 08:17:21;;;;;;;17.13;9.07;;;14.60;90.90;;;;;;5010226;28;20660;-73
2022/09/25 08:19:46;;;;;;;17.03;9.83;;;14.60;91.20;;;;;;5007178;28;20432;-73
2022/09/25 08:22:12;;;;;;;15.90;9.40;;;14.60;91.40;;;;;;5010309;28;20425;-72
2022/09/25 08:24:38;;;;;;;15.57;9.07;;;14.70;91.40;;;;;;5001690;28;20209;-73
2022/09/25 08:27:06;;;;;;;14.77;8.93;;;14.70;91.10;;;;;;5005191;28;20469;-73
2022/09/25 08:29:32;;;;;;;17.57;9.60;;;14.70;91.10;;;;;;5012256;28;20183;-73
2022/09/25 08:31:58;;;;;;;15.30;8.97;;;14.70;90.90;;;;;;5008311;28;21296;-73
2022/09/25 08:34:23;;;;;;;16.37;8.97;;;14.70;90.90;;;;;;4989122;28;20508;-73
2022/09/25 08:36:49;;;;;;;13.80;8.90;;;14.70;90.90;;;;;;5003381;28;20241;-73
2022/09/25 08:39:15;;;;;;;14.50;8.50;;;14.70;90.80;;;;;;4998551;28;20190;-73
2022/09/25 08:41:47;;;;;;;19.43;8.90;;;14.90;90.60;;;;;;5003040;28;20804;-71
2022/09/25 08:44:24;;;;;;;17.83;9.60;;;14.90;90.20;;;;;;4994655;28;20532;-73
2022/09/25 08:50:09;;;;;;;13.67;7.90;;;15.10;89.20;;;;;;5007977;28;20509;-73
2022/09/25 08:52:36;;;;;;;11.00;7.23;;;15.10;88.70;;;;;;5004042;28;20417;-71
2022/09/25 08:55:02;;;;;;;11.10;7.30;;;15.20;87.60;;;;;;5004289;28;20536;-73
2022/09/25 08:57:35;;;;;;;11.67;6.97;;;15.10;87.70;;;;;;5006181;28;20461;-73
2022/09/25 09:00:05;;;;;;;13.20;7.93;;;15.10;87.60;;;;;;5008456;28;20197;-74
2022/09/25 09:02:42;;;;;;;10.37;7.03;;;15.20;87.80;;;;;;5006736;28;20536;-72
2022/09/25 09:05:25;;;;;;;12.00;8.37;;;15.20;88.10;;;;;;5014291;28;20426;-73
2022/09/25 09:08:01;;;;;;;10.13;7.17;;;15.20;87.40;;;;;;5008149;28;20456;-73
2022/09/25 09:10:43;;;;;;;12.93;7.37;;;15.20;86.60;;;;;;5008703;28;20423;-72
2022/09/25 09:13:38;;;;;;;11.60;7.90;;;15.30;87.10;;;;;;5013154;28;20431;-74
2022/09/25 09:16:09;;;;;;;14.53;8.73;;;15.50;86.90;;;;;;5011922;28;20558;-71
2022/09/25 09:18:39;;;;;;;13.37;8.43;;;15.50;87.00;;;;;;5014362;28;20422;-71
2022/09/25 09:21:26;;;;;;;12.70;8.10;;;15.50;86.30;;;;;;5010730;28;20452;-72
2022/09/25 09:24:06;;;;;;;12.50;8.13;;;15.40;87.30;;;;;;5010205;28;20413;-73
2022/09/25 09:26:42;;;;;;;14.07;8.50;;;15.60;86.50;;;;;;5010498;28;20512;-72
2022/09/25 09:29:10;;;;;;;13.10;8.37;;;15.70;85.30;;;;;;5014598;28;20961;-71
2022/09/25 09:32:24;;;;;;;14.63;8.37;;;15.50;82.80;;;;;;5011690;28;20443;-73
2022/09/25 09:35:04;;;;;;;16.07;9.10;;;15.30;83.40;;;;;;5003525;28;20477;-72
2022/09/25 09:38:09;;;;;;;12.70;8.20;;;15.40;84.10;;;;;;5005939;28;20619;-73
2022/09/25 09:40:53;;;;;;;14.37;8.33;;;15.50;84.10;;;;;;5004505;28;20505;-71
2022/09/25 09:43:30;;;;;;;11.93;8.27;;;15.70;84.00;;;;;;5010760;28;20471;-72
2022/09/25 09:46:03;;;;;;;14.17;8.67;;;15.80;83.60;;;;;;5003691;28;20448;-73
2022/09/25 09:48:53;;;;;;;14.67;8.70;;;15.90;82.80;;;;;;5004148;28;20414;-72
2022/09/25 09:51:41;;;;;;;10.80;7.30;;;16.10;81.50;;;;;;5005629;28;20444;-72
2022/09/25 09:54:34;;;;;;;9.77;6.23;;;16.20;80.90;;;;;;5005930;28;20493;-73
2022/09/25 09:57:04;;;;;;;10.93;7.50;;;16.20;79.90;;;;;;5004486;28;20448;-72
2022/09/25 09:59:55;;;;;;;13.37;7.30;;;16.20;79.50;;;;;;5008479;28;20421;-71
2022/09/25 10:02:48;;;;;;;9.97;7.60;;;16.10;79.30;;;;;;5004957;28;20421;-72
2022/09/25 10:05:53;;;;;;;15.30;8.50;;;16.00;80.00;;;;;;5008161;28;20413;-71
2022/09/25 10:08:19;;;;;;;13.93;8.80;;;15.70;81.20;;;;;;4991225;28;20438;-73
2022/09/25 10:10:48;;;;;;;17.90;7.47;;;15.70;81.90;;;;;;5007544;28;20987;-73
2022/09/25 10:13:19;;;;;;;15.50;9.33;;;15.90;81.90;;;;;;5009326;28;20266;-74
2022/09/25 10:15:51;;;;;;;10.70;7.30;;;15.70;81.70;;;;;;5003829;28;20471;-69
2022/09/25 10:18:19;;;;;;;14.37;8.47;;;15.50;83.70;;;;;;5006682;28;20417;-72
2022/09/25 10:20:58;;;;;;;14.03;8.80;;;15.60;84.30;;;;;;4983635;28;20528;-72
2022/09/25 10:23:45;;;;;;;11.63;8.17;;;15.70;84.30;;;;;;4999654;28;20410;-73
2022/09/25 10:26:29;;;;;;;13.40;9.00;;;15.60;84.10;;;;;;4998176;28;20480;-74
2022/09/25 10:28:57;;;;;;;15.13;10.13;;;15.60;83.70;;;;;;5004297;28;20426;-74
2022/09/25 10:31:31;;;;;;;15.13;9.73;;;15.80;85.00;;;;;;5006718;28;20424;-73
2022/09/25 10:34:05;;;;;;;16.27;10.13;;;16.20;84.90;;;;;;5004716;28;21037;-70
2022/09/25 10:36:35;;;;;;;17.90;9.80;;;16.10;83.10;;;;;;5004339;28;20469;-73
2022/09/25 10:39:03;;;;;;;18.20;10.30;;;15.80;84.30;;;;;;5006519;28;20427;-73
2022/09/25 10:41:39;;;;;;;15.37;10.40;;;15.60;84.40;;;;;;5004629;28;20464;-73
2022/09/25 10:44:27;;;;;;;14.20;9.63;;;15.50;84.70;;;;;;5019481;28;20460;-70
2022/09/25 10:50:11;;;;;;;19.43;10.87;;;15.20;84.90;;;;;;5024689;28;20443;-72
2022/09/25 10:52:57;;;;;;;16.87;10.47;;;15.00;86.00;;;;;;5024564;28;20438;-74
2022/09/25 10:55:27;;;;;;;18.53;10.50;;;14.80;87.40;;;;;;5014686;28;20471;-72
2022/09/25 10:58:21;;;;;;;19.37;11.03;;;14.80;88.10;;;;;;5025332;28;20480;-73
2022/09/25 11:00:50;;;;;;;17.40;10.03;;;14.70;88.90;;;;;;4993448;28;20469;-73
2022/09/25 11:03:40;;;;;;;24.83;13.33;;;14.60;88.30;;;;;;4988222;28;20426;-73
2022/09/25 11:06:19;;;;;;;22.60;12.63;;;14.70;89.20;;;;;;4986634;28;20591;-72
2022/09/25 11:08:48;;;;;;;22.93;13.13;;;14.70;89.50;;;;;;4996440;28;20769;-73
2022/09/25 11:11:20;;;;;;;22.50;12.37;;;14.90;89.20;;;;;;4999377;28;20932;-73
2022/09/25 11:13:49;;;;;;;24.77;13.60;;;14.70;88.90;;;;;;5002223;28;20778;-73
2022/09/25 11:16:16;;;;;;;22.63;13.60;;;14.60;89.70;;;;;;4999389;28;20457;-72
2022/09/25 11:19:06;;;;;;;21.87;13.33;;;14.50;90.30;;;;;;5003808;28;20418;-73
2022/09/25 11:21:39;;;;;;;23.33;13.80;;;14.60;90.50;;;;;;4997404;28;20445;-71
2022/09/25 11:24:31;;;;;;;23.00;13.70;;;14.70;90.70;;;;;;4995445;28;20541;-71
2022/09/25 11:27:30;;;;;;;39.10;16.70;;;14.90;90.60;;;;;;4985349;28;20523;-73
2022/09/25 11:30:05;;;;;;;30.87;16.13;;;14.60;90.50;;;;;;4977846;28;20429;-73
2022/09/25 11:32:44;;;;;;;29.00;16.80;;;14.50;91.30;;;;;;5001285;28;20452;-73
2022/09/25 11:35:39;;;;;;;28.63;16.60;;;14.60;91.50;;;;;;5006489;28;20504;-71
2022/09/25 11:41:35;;;;;;;27.27;14.90;;;14.80;90.50;;;;;;4983358;28;20414;-73
2022/09/25 11:44:11;;;;;;;33.83;17.53;;;14.90;90.70;;;;;;5003611;28;20551;-73
2022/09/25 11:46:55;;;;;;;27.73;15.43;;;14.90;90.40;;;;;;4994830;28;20490;-73
2022/09/25 11:49:30;;;;;;;33.00;17.83;;;15.20;90.40;;;;;;5002310;28;20643;-71
2022/09/25 11:52:09;;;;;;;24.97;16.27;;;14.90;88.30;;;;;;5003126;28;20457;-73
2022/09/25 11:54:37;;;;;;;31.17;16.47;;;15.00;88.30;;;;;;5009005;28;20546;-73
2022/09/25 11:57:09;;;;;;;24.33;14.97;;;15.20;88.10;;;;;;5001716;28;21031;-72
2022/09/25 12:00:03;;;;;;;23.73;13.87;;;15.30;87.80;;;;;;4981728;28;20429;-74
2022/09/25 12:02:57;;;;;;;24.10;14.57;;;15.50;87.00;;;;;;5009841;28;20451;-73
2022/09/25 12:05:37;;;;;;;24.40;13.97;;;15.70;85.70;;;;;;4979145;28;20943;-73
2022/09/25 12:08:33;;;;;;;25.40;14.90;;;15.70;84.90;;;;;;4994087;28;20437;-71
2022/09/25 12:11:11;;;;;;;24.97;13.80;;;15.70;84.00;;;;;;4995267;28;20424;-72
2022/09/25 12:13:43;;;;;;;30.47;16.87;;;15.70;84.40;;;;;;5008488;28;20416;-72
2022/09/25 12:16:27;;;;;;;22.93;14.03;;;15.70;84.40;;;;;;4998565;28;20468;-73
2022/09/25 12:19:05;;;;;;;28.23;16.53;;;15.80;85.20;;;;;;4998866;28;20923;-71
2022/09/25 12:21:43;;;;;;;30.33;17.17;;;16.00;84.30;;;;;;4990994;28;20448;-72
2022/09/25 12:24:26;;;;;;;26.70;16.50;;;16.10;82.80;;;;;;5007846;28;20423;-72
2022/09/25 12:27:20;;;;;;;26.30;14.80;;;16.00;81.20;;;;;;5000239;28;20465;-71
2022/09/25 12:30:16;;;;;;;28.67;16.80;;;16.00;81.70;;;;;;4989895;28;20803;-73
2022/09/25 12:33:28;;;;;;;26.03;15.00;;;16.20;81.90;;;;;;4982862;28;20463;-73
2022/09/25 12:36:11;;;;;;;29.17;15.20;;;16.50;81.70;;;;;;4946162;28;20651;-71
2022/09/25 12:38:57;;;;;;;31.57;16.43;;;16.70;80.60;;;;;;5002500;28;20479;-73
2022/09/25 12:41:46;;;;;;;25.53;15.20;;;16.70;79.90;;;;;;5008694;28;20559;-71
2022/09/25 12:44:35;;;;;;;27.83;14.60;;;16.60;79.90;;;;;;5004240;28;20410;-73
2022/09/25 12:47:14;;;;;;;24.90;14.60;;;16.80;80.20;;;;;;5006881;28;20463;-71
2022/09/25 12:49:47;;;;;;;23.60;14.03;;;17.20;78.10;;;;;;5002503;28;20433;-72
2022/09/25 12:52:23;;;;;;;26.47;15.17;;;17.50;77.00;;;;;;4996102;28;20410;-72
2022/09/25 12:55:04;;;;;;;22.20;14.60;;;17.60;76.80;;;;;;4984776;28;20553;-72
2022/09/25 12:57:41;;;;;;;19.57;12.90;;;17.80;76.80;;;;;;5010325;28;20452;-72
2022/09/25 13:00:24;;;;;;;22.27;13.60;;;18.10;74.90;;;;;;5010206;28;20763;-72
2022/09/25 13:03:15;;;;;;;23.57;14.37;;;18.20;74.90;;;;;;5002712;28;20425;-71
2022/09/25 13:05:49;;;;;;;27.67;14.87;;;18.10;74.50;;;;;;5000844;28;20486;-71
2022/09/25 13:08:59;;;;;;;23.20;14.57;;;17.50;76.50;;;;;;4991308;28;20436;-73
2022/09/25 13:11:44;;;;;;;26.17;14.73;;;17.30;79.00;;;;;;4925784;29;20582;-71
2022/09/25 13:14:19;;;;;;;24.23;13.27;;;17.00;78.40;;;;;;4922098;29;21036;-74